sensor_id;sensor_type;location;lat;lon;timestamp;temperature;humidity
52107;DHT22;38105;52.968;5.974;2023-04-01T00:00:18;9.60;99.90
52107;DHT22;38105;52.968;5.974;2023-04-01T00:02:44;9.50;99.90
52107;DHT22;38105;52.968;5.974;2023-04-01T00:05:10;10.10;99.90
52107;DHT22;38105;52.968;5.974;2023-04-01T00:07:37;9.40;99.90
52107;DHT22;38105;52.968;5.974;2023-04-01T00:10:05;9.80;99.90
52107;DHT22;38105;52.968;5.974;2023-04-01T00:12:30;9.30;99.90
52107;DHT22;38105;52.968;5.974;2023-04-01T00:14:56;9.60;99.90
52107;DHT22;38105;52.968;5.974;2023-04-01T00:17:22;10.20;99.90
52107;DHT22;38105;52.968;5.974;2023-04-01T00:19:48;9.80;99.90
52107;DHT22;38105;52.968;5.974;2023-04-01T00:22:14;10.10;99.90
52107;DHT22;38105;52.968;5.974;2023-04-01T00:24:40;10.20;99.90
52107;DHT22;38105;52.968;5.974;2023-04-01T00:27:05;9.70;99.90
52107;DHT22;38105;52.968;5.974;2023-04-01T00:29:31;9.60;99.90
52107;DHT22;38105;52.968;5.974;2023-04-01T00:31:58;9.40;99.90
52107;DHT22;38105;52.968;5.974;2023-04-01T00:34:23;10.20;99.90
52107;DHT22;38105;52.968;5.974;2023-04-01T00:36:50;9.60;99.90
52107;DHT22;38105;52.968;5.974;2023-04-01T00:39:17;9.40;99.90
52107;DHT22;38105;52.968;5.974;2023-04-01T00:41:43;9.30;99.90
52107;DHT22;38105;52.968;5.974;2023-04-01T00:44:19;9.40;99.90
52107;DHT22;38105;52.968;5.974;2023-04-01T00:46:45;9.70;99.90
52107;DHT22;38105;52.968;5.974;2023-04-01T00:49:11;10.00;99.90
52107;DHT22;38105;52.968;5.974;2023-04-01T00:51:38;9.40;99.90
52107;DHT22;38105;52.968;5.974;2023-04-01T00:54:04;9.50;99.90
52107;DHT22;38105;52.968;5.974;2023-04-01T00:56:52;9.50;99.90
52107;DHT22;38105;52.968;5.974;2023-04-01T00:59:25;10.20;99.90
52107;DHT22;38105;52.968;5.974;2023-04-01T01:01:52;10.00;99.90
52107;DHT22;38105;52.968;5.974;2023-04-01T01:04:29;9.70;99.90
52107;DHT22;38105;52.968;5.974;2023-04-01T01:15:36;10.00;99.90
52107;DHT22;38105;52.968;5.974;2023-04-01T01:18:48;9.50;99.90
52107;DHT22;38105;52.968;5.974;2023-04-01T01:29:32;9.50;99.90
52107;DHT22;38105;52.968;5.974;2023-04-01T01:34:34;9.90;99.90
52107;DHT22;38105;52.968;5.974;2023-04-01T01:37:09;10.10;99.90
52107;DHT22;38105;52.968;5.974;2023-04-01T01:39:36;10.00;99.90
52107;DHT22;38105;52.968;5.974;2023-04-01T01:42:04;9.90;99.90
52107;DHT22;38105;52.968;5.974;2023-04-01T01:44:32;9.30;99.90
52107;DHT22;38105;52.968;5.974;2023-04-01T01:46:59;9.50;99.90
52107;DHT22;38105;52.968;5.974;2023-04-01T01:49:27;9.40;99.90
52107;DHT22;38105;52.968;5.974;2023-04-01T01:51:56;10.00;99.90
52107;DHT22;38105;52.968;5.974;2023-04-01T01:54:21;9.90;99.90
52107;DHT22;38105;52.968;5.974;2023-04-01T01:56:51;10.00;99.90
52107;DHT22;38105;52.968;5.974;2023-04-01T01:59:20;9.60;99.90
52107;DHT22;38105;52.968;5.974;2023-04-01T02:01:51;10.00;99.90
52107;DHT22;38105;52.968;5.974;2023-04-01T02:04:18;9.60;99.90
52107;DHT22;38105;52.968;5.974;2023-04-01T02:06:50;9.80;99.90
52107;DHT22;38105;52.968;5.974;2023-04-01T02:09:19;9.70;99.90
52107;DHT22;38105;52.968;5.974;2023-04-01T02:11:47;9.40;99.90
52107;DHT22;38105;52.968;5.974;2023-04-01T02:14:38;9.30;99.90
52107;DHT22;38105;52.968;5.974;2023-04-01T02:17:19;9.40;99.90
52107;DHT22;38105;52.968;5.974;2023-04-01T02:19:55;10.10;99.90
52107;DHT22;38105;52.968;5.974;2023-04-01T02:22:26;10.10;99.90
52107;DHT22;38105;52.968;5.974;2023-04-01T02:24:57;9.60;99.90
52107;DHT22;38105;52.968;5.974;2023-04-01T02:27:24;10.00;99.90
52107;DHT22;38105;52.968;5.974;2023-04-01T02:29:51;9.80;99.90
52107;DHT22;38105;52.968;5.974;2023-04-01T02:32:18;10.00;99.90
52107;DHT22;38105;52.968;5.974;2023-04-01T02:34:45;9.40;99.90
52107;DHT22;38105;52.968;5.974;2023-04-01T02:37:12;9.40;99.90
52107;DHT22;38105;52.968;5.974;2023-04-01T02:39:38;10.00;99.90
52107;DHT22;38105;52.968;5.974;2023-04-01T02:42:04;10.10;99.90
52107;DHT22;38105;52.968;5.974;2023-04-01T02:44:30;9.30;99.90
52107;DHT22;38105;52.968;5.974;2023-04-01T02:46:56;9.20;99.90
52107;DHT22;38105;52.968;5.974;2023-04-01T02:49:22;9.30;99.90
52107;DHT22;38105;52.968;5.974;2023-04-01T02:51:47;9.80;99.90
52107;DHT22;38105;52.968;5.974;2023-04-01T02:54:13;10.00;99.90
52107;DHT22;38105;52.968;5.974;2023-04-01T02:56:38;9.60;99.90
52107;DHT22;38105;52.968;5.974;2023-04-01T02:59:04;9.40;99.90
52107;DHT22;38105;52.968;5.974;2023-04-01T03:01:30;9.20;99.90
52107;DHT22;38105;52.968;5.974;2023-04-01T03:03:56;10.00;99.90
52107;DHT22;38105;52.968;5.974;2023-04-01T03:06:21;9.40;99.90
52107;DHT22;38105;52.968;5.974;2023-04-01T03:08:47;9.20;99.90
52107;DHT22;38105;52.968;5.974;2023-04-01T03:11:13;9.50;99.90
52107;DHT22;38105;52.968;5.974;2023-04-01T03:13:39;9.70;99.90
52107;DHT22;38105;52.968;5.974;2023-04-01T03:16:06;9.90;99.90
52107;DHT22;38105;52.968;5.974;2023-04-01T03:18:32;9.70;99.90
52107;DHT22;38105;52.968;5.974;2023-04-01T03:21:15;9.50;99.90
52107;DHT22;38105;52.968;5.974;2023-04-01T03:23:41;9.70;99.90
52107;DHT22;38105;52.968;5.974;2023-04-01T03:26:07;8.80;99.90
52107;DHT22;38105;52.968;5.974;2023-04-01T03:28:33;9.10;99.90
52107;DHT22;38105;52.968;5.974;2023-04-01T03:30:59;9.90;99.90
52107;DHT22;38105;52.968;5.974;2023-04-01T03:33:24;9.90;99.90
52107;DHT22;38105;52.968;5.974;2023-04-01T03:35:50;9.50;99.90
52107;DHT22;38105;52.968;5.974;2023-04-01T03:38:17;9.10;99.90
52107;DHT22;38105;52.968;5.974;2023-04-01T03:40:43;9.00;99.90
52107;DHT22;38105;52.968;5.974;2023-04-01T03:43:09;9.20;99.90
52107;DHT22;38105;52.968;5.974;2023-04-01T03:45:36;9.50;99.90
52107;DHT22;38105;52.968;5.974;2023-04-01T03:48:02;9.00;99.90
52107;DHT22;38105;52.968;5.974;2023-04-01T03:50:27;9.80;99.90
52107;DHT22;38105;52.968;5.974;2023-04-01T03:52:53;9.30;99.90
52107;DHT22;38105;52.968;5.974;2023-04-01T03:55:18;10.20;99.90
52107;DHT22;38105;52.968;5.974;2023-04-01T03:57:44;9.10;99.90
52107;DHT22;38105;52.968;5.974;2023-04-01T04:00:10;9.70;99.90
52107;DHT22;38105;52.968;5.974;2023-04-01T04:02:36;9.20;99.90
52107;DHT22;38105;52.968;5.974;2023-04-01T04:05:02;9.50;99.90
52107;DHT22;38105;52.968;5.974;2023-04-01T04:07:28;9.90;99.90
52107;DHT22;38105;52.968;5.974;2023-04-01T04:09:53;9.80;99.90
52107;DHT22;38105;52.968;5.974;2023-04-01T04:12:19;9.10;99.90
52107;DHT22;38105;52.968;5.974;2023-04-01T04:14:44;9.20;99.90
52107;DHT22;38105;52.968;5.974;2023-04-01T04:17:11;9.30;99.90
52107;DHT22;38105;52.968;5.974;2023-04-01T04:19:41;9.00;99.90
52107;DHT22;38105;52.968;5.974;2023-04-01T04:22:11;9.70;99.90
52107;DHT22;38105;52.968;5.974;2023-04-01T04:24:36;9.30;99.90
52107;DHT22;38105;52.968;5.974;2023-04-01T04:27:02;9.70;99.90
52107;DHT22;38105;52.968;5.974;2023-04-01T04:29:28;9.10;99.90
52107;DHT22;38105;52.968;5.974;2023-04-01T04:31:54;9.80;99.90
52107;DHT22;38105;52.968;5.974;2023-04-01T04:34:20;9.80;99.90
52107;DHT22;38105;52.968;5.974;2023-04-01T04:36:48;9.80;99.90
52107;DHT22;38105;52.968;5.974;2023-04-01T04:39:14;9.10;99.90
52107;DHT22;38105;52.968;5.974;2023-04-01T04:41:40;9.80;99.90
52107;DHT22;38105;52.968;5.974;2023-04-01T04:44:05;9.20;99.90
52107;DHT22;38105;52.968;5.974;2023-04-01T04:46:31;10.00;99.90
52107;DHT22;38105;52.968;5.974;2023-04-01T04:48:57;9.20;99.90
52107;DHT22;38105;52.968;5.974;2023-04-01T04:51:23;9.10;99.90
52107;DHT22;38105;52.968;5.974;2023-04-01T04:53:49;9.90;99.90
52107;DHT22;38105;52.968;5.974;2023-04-01T04:56:19;9.20;99.90
52107;DHT22;38105;52.968;5.974;2023-04-01T04:58:45;9.90;99.90
52107;DHT22;38105;52.968;5.974;2023-04-01T05:01:13;9.90;99.90
52107;DHT22;38105;52.968;5.974;2023-04-01T05:03:39;9.40;99.90
52107;DHT22;38105;52.968;5.974;2023-04-01T05:06:06;9.60;99.90
52107;DHT22;38105;52.968;5.974;2023-04-01T05:08:32;9.10;99.90
52107;DHT22;38105;52.968;5.974;2023-04-01T05:10:59;9.80;99.90
52107;DHT22;38105;52.968;5.974;2023-04-01T05:13:24;9.30;99.90
52107;DHT22;38105;52.968;5.974;2023-04-01T05:15:50;9.90;99.90
52107;DHT22;38105;52.968;5.974;2023-04-01T05:18:16;9.80;99.90
52107;DHT22;38105;52.968;5.974;2023-04-01T05:20:52;10.00;99.90
52107;DHT22;38105;52.968;5.974;2023-04-01T05:23:19;9.40;99.90
52107;DHT22;38105;52.968;5.974;2023-04-01T05:25:47;10.00;99.90
52107;DHT22;38105;52.968;5.974;2023-04-01T05:28:14;10.00;99.90
52107;DHT22;38105;52.968;5.974;2023-04-01T05:30:44;9.30;99.90
52107;DHT22;38105;52.968;5.974;2023-04-01T05:33:11;9.60;99.90
52107;DHT22;38105;52.968;5.974;2023-04-01T05:35:36;9.90;99.90
52107;DHT22;38105;52.968;5.974;2023-04-01T05:38:03;9.50;99.90
52107;DHT22;38105;52.968;5.974;2023-04-01T05:40:30;9.90;99.90
52107;DHT22;38105;52.968;5.974;2023-04-01T05:42:56;9.30;99.90
52107;DHT22;38105;52.968;5.974;2023-04-01T05:45:21;10.00;99.90
52107;DHT22;38105;52.968;5.974;2023-04-01T05:47:47;9.50;99.90
52107;DHT22;38105;52.968;5.974;2023-04-01T05:50:13;9.30;99.90
52107;DHT22;38105;52.968;5.974;2023-04-01T05:52:39;9.40;99.90
52107;DHT22;38105;52.968;5.974;2023-04-01T05:55:05;9.50;99.90
52107;DHT22;38105;52.968;5.974;2023-04-01T05:57:31;10.20;99.90
52107;DHT22;38105;52.968;5.974;2023-04-01T05:59:57;9.50;99.90
52107;DHT22;38105;52.968;5.974;2023-04-01T06:02:23;10.10;99.90
52107;DHT22;38105;52.968;5.974;2023-04-01T06:04:49;10.20;99.90
52107;DHT22;38105;52.968;5.974;2023-04-01T06:07:18;9.40;99.90
52107;DHT22;38105;52.968;5.974;2023-04-01T06:09:45;9.90;99.90
52107;DHT22;38105;52.968;5.974;2023-04-01T06:15:23;9.60;99.90
52107;DHT22;38105;52.968;5.974;2023-04-01T06:18:31;9.40;99.90
52107;DHT22;38105;52.968;5.974;2023-04-01T06:21:42;10.10;99.90
52107;DHT22;38105;52.968;5.974;2023-04-01T06:27:44;9.80;99.90
52107;DHT22;38105;52.968;5.974;2023-04-01T06:36:04;9.50;99.90
52107;DHT22;38105;52.968;5.974;2023-04-01T06:38:56;9.90;99.90
52107;DHT22;38105;52.968;5.974;2023-04-01T06:44:33;10.00;99.90
52107;DHT22;38105;52.968;5.974;2023-04-01T06:57:45;10.10;99.90
52107;DHT22;38105;52.968;5.974;2023-04-01T07:00:37;10.00;99.90
52107;DHT22;38105;52.968;5.974;2023-04-01T07:03:36;10.30;99.90
52107;DHT22;38105;52.968;5.974;2023-04-01T07:06:30;10.30;99.90
52107;DHT22;38105;52.968;5.974;2023-04-01T07:08:59;10.20;99.90
52107;DHT22;38105;52.968;5.974;2023-04-01T07:11:37;9.80;99.90
52107;DHT22;38105;52.968;5.974;2023-04-01T07:14:17;9.70;99.90
52107;DHT22;38105;52.968;5.974;2023-04-01T07:17:17;9.80;99.90
52107;DHT22;38105;52.968;5.974;2023-04-01T07:20:11;10.00;99.90
52107;DHT22;38105;52.968;5.974;2023-04-01T07:22:51;10.50;99.90
52107;DHT22;38105;52.968;5.974;2023-04-01T07:25:24;10.00;99.90
52107;DHT22;38105;52.968;5.974;2023-04-01T07:27:53;9.80;99.90
52107;DHT22;38105;52.968;5.974;2023-04-01T07:30:22;9.90;99.90
52107;DHT22;38105;52.968;5.974;2023-04-01T07:33:09;10.00;99.90
52107;DHT22;38105;52.968;5.974;2023-04-01T07:39:12;10.40;99.90
52107;DHT22;38105;52.968;5.974;2023-04-01T07:44:50;10.80;99.90
52107;DHT22;38105;52.968;5.974;2023-04-01T07:47:45;10.10;99.90
52107;DHT22;38105;52.968;5.974;2023-04-01T07:50:27;10.80;99.90
52107;DHT22;38105;52.968;5.974;2023-04-01T07:58:05;10.30;99.90
52107;DHT22;38105;52.968;5.974;2023-04-01T08:00:58;10.30;99.90
52107;DHT22;38105;52.968;5.974;2023-04-01T08:11:31;10.50;99.90
52107;DHT22;38105;52.968;5.974;2023-04-01T08:14:26;11.10;99.90
52107;DHT22;38105;52.968;5.974;2023-04-01T08:17:14;11.00;99.90
52107;DHT22;38105;52.968;5.974;2023-04-01T08:19:56;10.50;99.90
52107;DHT22;38105;52.968;5.974;2023-04-01T08:22:42;10.60;99.90
52107;DHT22;38105;52.968;5.974;2023-04-01T08:25:16;10.70;99.90
52107;DHT22;38105;52.968;5.974;2023-04-01T08:27:56;10.80;99.90
52107;DHT22;38105;52.968;5.974;2023-04-01T08:30:33;10.80;99.90
52107;DHT22;38105;52.968;5.974;2023-04-01T08:33:10;10.90;99.90
52107;DHT22;38105;52.968;5.974;2023-04-01T08:35:55;11.50;99.90
52107;DHT22;38105;52.968;5.974;2023-04-01T08:52:35;11.30;99.90
52107;DHT22;38105;52.968;5.974;2023-04-01T09:00:38;11.70;99.90
52107;DHT22;38105;52.968;5.974;2023-04-01T09:06:10;11.30;99.90
52107;DHT22;38105;52.968;5.974;2023-04-01T09:09:09;11.10;99.90
52107;DHT22;38105;52.968;5.974;2023-04-01T09:14:54;11.20;99.90
52107;DHT22;38105;52.968;5.974;2023-04-01T09:34:12;11.20;99.90
52107;DHT22;38105;52.968;5.974;2023-04-01T09:43:02;11.10;99.90
52107;DHT22;38105;52.968;5.974;2023-04-01T09:45:37;10.60;99.90
52107;DHT22;38105;52.968;5.974;2023-04-01T09:51:01;10.40;99.90
52107;DHT22;38105;52.968;5.974;2023-04-01T09:56:40;10.60;99.90
52107;DHT22;38105;52.968;5.974;2023-04-01T10:16:58;11.50;99.90
52107;DHT22;38105;52.968;5.974;2023-04-01T10:36:43;10.50;99.90
52107;DHT22;38105;52.968;5.974;2023-04-01T10:42:44;10.80;99.90
52107;DHT22;38105;52.968;5.974;2023-04-01T10:48:01;10.90;99.90
52107;DHT22;38105;52.968;5.974;2023-04-01T11:15:41;11.00;99.90
52107;DHT22;38105;52.968;5.974;2023-04-01T11:37:23;10.70;99.90
52107;DHT22;38105;52.968;5.974;2023-04-01T11:45:36;11.00;99.90
52107;DHT22;38105;52.968;5.974;2023-04-01T11:56:07;10.50;99.90
52107;DHT22;38105;52.968;5.974;2023-04-01T12:01:59;11.00;99.90
52107;DHT22;38105;52.968;5.974;2023-04-01T12:07:48;10.90;99.90
52107;DHT22;38105;52.968;5.974;2023-04-01T12:21:27;10.70;99.90
52107;DHT22;38105;52.968;5.974;2023-04-01T12:27:12;10.70;99.90
52107;DHT22;38105;52.968;5.974;2023-04-01T12:47:42;11.00;99.90
52107;DHT22;38105;52.968;5.974;2023-04-01T12:53:42;11.00;99.90
52107;DHT22;38105;52.968;5.974;2023-04-01T12:55:49;10.70;99.90
52107;DHT22;38105;52.968;5.974;2023-04-01T13:01:23;10.50;99.90
52107;DHT22;38105;52.968;5.974;2023-04-01T13:07:16;10.50;99.90
52107;DHT22;38105;52.968;5.974;2023-04-01T13:10:21;10.70;99.90
52107;DHT22;38105;52.968;5.974;2023-04-01T13:15:28;10.50;99.90
52107;DHT22;38105;52.968;5.974;2023-04-01T13:21:11;10.50;99.90
52107;DHT22;38105;52.968;5.974;2023-04-01T13:29:17;10.70;99.90
52107;DHT22;38105;52.968;5.974;2023-04-01T13:37:50;10.60;99.90
52107;DHT22;38105;52.968;5.974;2023-04-01T13:43:30;10.70;99.90
52107;DHT22;38105;52.968;5.974;2023-04-01T13:48:51;10.70;99.90
52107;DHT22;38105;52.968;5.974;2023-04-01T13:52:05;10.60;99.90
52107;DHT22;38105;52.968;5.974;2023-04-01T14:00:20;10.70;99.90
52107;DHT22;38105;52.968;5.974;2023-04-01T14:05:38;10.60;99.90
52107;DHT22;38105;52.968;5.974;2023-04-01T14:08:13;10.50;99.90
52107;DHT22;38105;52.968;5.974;2023-04-01T14:31:04;10.00;99.90
52107;DHT22;38105;52.968;5.974;2023-04-01T14:42:38;9.90;99.90
52107;DHT22;38105;52.968;5.974;2023-04-01T14:50:47;9.90;99.90
52107;DHT22;38105;52.968;5.974;2023-04-01T14:55:51;9.80;99.90
52107;DHT22;38105;52.968;5.974;2023-04-01T14:58:19;9.80;99.90
52107;DHT22;38105;52.968;5.974;2023-04-01T15:03:54;9.50;99.90
52107;DHT22;38105;52.968;5.974;2023-04-01T15:06:46;9.50;99.90
52107;DHT22;38105;52.968;5.974;2023-04-01T15:09:29;9.70;99.90
52107;DHT22;38105;52.968;5.974;2023-04-01T15:23:00;9.50;99.90
52107;DHT22;38105;52.968;5.974;2023-04-01T15:25:33;9.30;99.90
52107;DHT22;38105;52.968;5.974;2023-04-01T15:28:23;9.20;99.90
52107;DHT22;38105;52.968;5.974;2023-04-01T15:39:18;9.40;99.90
52107;DHT22;38105;52.968;5.974;2023-04-01T15:47:29;9.30;99.90
52107;DHT22;38105;52.968;5.974;2023-04-01T15:53:12;9.10;99.90
52107;DHT22;38105;52.968;5.974;2023-04-01T15:55:47;9.10;99.90
52107;DHT22;38105;52.968;5.974;2023-04-01T16:06:11;9.10;99.90
52107;DHT22;38105;52.968;5.974;2023-04-01T16:12:09;9.00;99.90
52107;DHT22;38105;52.968;5.974;2023-04-01T16:21:00;8.90;99.90
52107;DHT22;38105;52.968;5.974;2023-04-01T16:23:40;8.60;99.90
52107;DHT22;38105;52.968;5.974;2023-04-01T16:28:52;8.70;99.90
52107;DHT22;38105;52.968;5.974;2023-04-01T16:31:50;8.50;99.90
52107;DHT22;38105;52.968;5.974;2023-04-01T16:34:20;8.50;99.90
52107;DHT22;38105;52.968;5.974;2023-04-01T16:39:37;8.40;99.90
52107;DHT22;38105;52.968;5.974;2023-04-01T16:44:56;8.40;99.90
52107;DHT22;38105;52.968;5.974;2023-04-01T16:47:30;8.30;99.90
52107;DHT22;38105;52.968;5.974;2023-04-01T16:50:21;8.20;99.90
52107;DHT22;38105;52.968;5.974;2023-04-01T16:53:09;8.30;99.90
52107;DHT22;38105;52.968;5.974;2023-04-01T16:55:50;8.30;99.90
52107;DHT22;38105;52.968;5.974;2023-04-01T16:59:21;8.30;99.90
52107;DHT22;38105;52.968;5.974;2023-04-01T17:01:26;8.20;99.90
52107;DHT22;38105;52.968;5.974;2023-04-01T17:03:58;8.10;99.90
52107;DHT22;38105;52.968;5.974;2023-04-01T17:06:34;8.10;99.90
52107;DHT22;38105;52.968;5.974;2023-04-01T17:09:31;8.00;99.90
52107;DHT22;38105;52.968;5.974;2023-04-01T17:12:35;8.00;99.90
52107;DHT22;38105;52.968;5.974;2023-04-01T17:15:10;8.00;99.90
52107;DHT22;38105;52.968;5.974;2023-04-01T17:20:48;7.80;99.90
52107;DHT22;38105;52.968;5.974;2023-04-01T17:29:07;7.90;99.90
52107;DHT22;38105;52.968;5.974;2023-04-01T17:37:43;7.80;99.90
52107;DHT22;38105;52.968;5.974;2023-04-01T17:40:31;8.00;99.90
52107;DHT22;38105;52.968;5.974;2023-04-01T17:56:01;7.70;99.90
52107;DHT22;38105;52.968;5.974;2023-04-01T17:58:46;7.50;99.90
52107;DHT22;38105;52.968;5.974;2023-04-01T18:01:26;7.70;99.90
52107;DHT22;38105;52.968;5.974;2023-04-01T18:15:19;7.40;99.90
52107;DHT22;38105;52.968;5.974;2023-04-01T18:20:53;7.30;99.90
52107;DHT22;38105;52.968;5.974;2023-04-01T18:26:31;7.30;99.90
52107;DHT22;38105;52.968;5.974;2023-04-01T18:29:02;7.40;99.90
52107;DHT22;38105;52.968;5.974;2023-04-01T18:31:43;7.40;99.90
52107;DHT22;38105;52.968;5.974;2023-04-01T18:36:56;7.20;99.90
52107;DHT22;38105;52.968;5.974;2023-04-01T18:44:59;7.10;99.90
52107;DHT22;38105;52.968;5.974;2023-04-01T18:55:51;7.30;99.90
52107;DHT22;38105;52.968;5.974;2023-04-01T19:01:41;7.10;99.90
52107;DHT22;38105;52.968;5.974;2023-04-01T19:07:19;7.10;99.90
52107;DHT22;38105;52.968;5.974;2023-04-01T19:09:47;7.10;99.90
52107;DHT22;38105;52.968;5.974;2023-04-01T19:15:13;7.00;99.90
52107;DHT22;38105;52.968;5.974;2023-04-01T19:17:58;6.80;99.90
52107;DHT22;38105;52.968;5.974;2023-04-01T19:25:40;7.10;99.90
52107;DHT22;38105;52.968;5.974;2023-04-01T19:45:00;6.90;99.90
52107;DHT22;38105;52.968;5.974;2023-04-01T19:47:53;6.90;99.90
52107;DHT22;38105;52.968;5.974;2023-04-01T19:50:52;6.90;99.90
52107;DHT22;38105;52.968;5.974;2023-04-01T19:53:58;6.70;99.90
52107;DHT22;38105;52.968;5.974;2023-04-01T19:56:24;6.70;99.90
52107;DHT22;38105;52.968;5.974;2023-04-01T20:01:41;6.70;99.90
52107;DHT22;38105;52.968;5.974;2023-04-01T20:04:23;6.50;99.90
52107;DHT22;38105;52.968;5.974;2023-04-01T20:07:00;6.70;99.90
52107;DHT22;38105;52.968;5.974;2023-04-01T20:12:24;6.50;99.90
52107;DHT22;38105;52.968;5.974;2023-04-01T20:14:56;6.60;99.90
52107;DHT22;38105;52.968;5.974;2023-04-01T20:25:26;6.40;99.90
52107;DHT22;38105;52.968;5.974;2023-04-01T20:53:27;6.20;99.90
52107;DHT22;38105;52.968;5.974;2023-04-01T20:56:06;6.50;99.90
52107;DHT22;38105;52.968;5.974;2023-04-01T20:58:46;6.20;99.90
52107;DHT22;38105;52.968;5.974;2023-04-01T21:01:39;6.10;99.90
52107;DHT22;38105;52.968;5.974;2023-04-01T21:04:35;6.10;99.90
52107;DHT22;38105;52.968;5.974;2023-04-01T21:07:16;6.10;99.90
52107;DHT22;38105;52.968;5.974;2023-04-01T21:10:11;6.80;99.90
52107;DHT22;38105;52.968;5.974;2023-04-01T21:13:03;6.00;99.90
52107;DHT22;38105;52.968;5.974;2023-04-01T21:15:47;6.00;99.90
52107;DHT22;38105;52.968;5.974;2023-04-01T21:18:47;5.90;99.90
52107;DHT22;38105;52.968;5.974;2023-04-01T21:23:57;5.90;99.90
52107;DHT22;38105;52.968;5.974;2023-04-01T21:38:36;5.90;99.90
52107;DHT22;38105;52.968;5.974;2023-04-01T21:41:21;5.90;99.90
52107;DHT22;38105;52.968;5.974;2023-04-01T21:49:53;5.80;99.90
52107;DHT22;38105;52.968;5.974;2023-04-01T21:55:57;5.70;99.90
52107;DHT22;38105;52.968;5.974;2023-04-01T21:58:30;5.80;99.90
52107;DHT22;38105;52.968;5.974;2023-04-01T22:06:37;5.80;99.90
52107;DHT22;38105;52.968;5.974;2023-04-01T22:09:28;5.80;99.90
52107;DHT22;38105;52.968;5.974;2023-04-01T22:11:59;5.20;99.90
52107;DHT22;38105;52.968;5.974;2023-04-01T22:14:40;5.70;99.90
52107;DHT22;38105;52.968;5.974;2023-04-01T22:25:27;5.70;99.90
52107;DHT22;38105;52.968;5.974;2023-04-01T22:28:03;5.70;99.90
52107;DHT22;38105;52.968;5.974;2023-04-01T22:30:36;5.70;99.90
52107;DHT22;38105;52.968;5.974;2023-04-01T22:36:04;5.70;99.90
52107;DHT22;38105;52.968;5.974;2023-04-01T22:44:42;5.60;99.90
52107;DHT22;38105;52.968;5.974;2023-04-01T22:50:22;5.50;99.90
52107;DHT22;38105;52.968;5.974;2023-04-01T22:55:46;5.50;99.90
52107;DHT22;38105;52.968;5.974;2023-04-01T22:58:26;5.50;99.90
52107;DHT22;38105;52.968;5.974;2023-04-01T23:00:59;5.40;99.90
52107;DHT22;38105;52.968;5.974;2023-04-01T23:03:35;5.40;99.90
52107;DHT22;38105;52.968;5.974;2023-04-01T23:06:05;5.40;99.90
52107;DHT22;38105;52.968;5.974;2023-04-01T23:09:00;5.40;99.90
52107;DHT22;38105;52.968;5.974;2023-04-01T23:19:21;5.40;99.90
52107;DHT22;38105;52.968;5.974;2023-04-01T23:24:55;5.40;99.90
52107;DHT22;38105;52.968;5.974;2023-04-01T23:27:33;5.30;99.90
52107;DHT22;38105;52.968;5.974;2023-04-01T23:30:03;5.30;99.90
52107;DHT22;38105;52.968;5.974;2023-04-01T23:32:28;5.30;99.90
52107;DHT22;38105;52.968;5.974;2023-04-01T23:34:57;5.10;99.90
52107;DHT22;38105;52.968;5.974;2023-04-01T23:37:24;5.20;99.90
52107;DHT22;38105;52.968;5.974;2023-04-01T23:39:52;5.30;99.90
52107;DHT22;38105;52.968;5.974;2023-04-01T23:42:24;5.20;99.90
52107;DHT22;38105;52.968;5.974;2023-04-01T23:44:56;5.20;99.90
52107;DHT22;38105;52.968;5.974;2023-04-01T23:47:38;5.20;99.90
52107;DHT22;38105;52.968;5.974;2023-04-01T23:50:13;5.10;99.90
52107;DHT22;38105;52.968;5.974;2023-04-01T23:52:42;5.10;99.90
52107;DHT22;38105;52.968;5.974;2023-04-01T23:55:18;5.00;99.90
